sensor_id;sensor_type;location;lat;lon;timestamp;P1;durP1;ratioP1;P2;durP2;ratioP2
69979;SDS011;57318;56.232;43.944;2023-08-24T00:00:45;4.13;;;2.47;;
69979;SDS011;57318;56.232;43.944;2023-08-24T00:03:11;3.35;;;2.65;;
69979;SDS011;57318;56.232;43.944;2023-08-24T00:05:37;4.18;;;2.78;;
69979;SDS011;57318;56.232;43.944;2023-08-24T00:08:04;5.97;;;2.65;;
69979;SDS011;57318;56.232;43.944;2023-08-24T00:10:30;3.05;;;2.65;;
69979;SDS011;57318;56.232;43.944;2023-08-24T00:12:55;3.90;;;2.43;;
69979;SDS011;57318;56.232;43.944;2023-08-24T00:15:22;2.95;;;2.30;;
69979;SDS011;57318;56.232;43.944;2023-08-24T00:17:48;4.53;;;2.53;;
69979;SDS011;57318;56.232;43.944;2023-08-24T00:20:13;3.87;;;2.27;;
69979;SDS011;57318;56.232;43.944;2023-08-24T00:22:39;3.97;;;1.93;;
69979;SDS011;57318;56.232;43.944;2023-08-24T00:25:06;3.17;;;1.90;;
69979;SDS011;57318;56.232;43.944;2023-08-24T00:27:33;2.53;;;1.70;;
69979;SDS011;57318;56.232;43.944;2023-08-24T00:29:59;2.53;;;2.00;;
69979;SDS011;57318;56.232;43.944;2023-08-24T00:32:25;2.58;;;1.80;;
69979;SDS011;57318;56.232;43.944;2023-08-24T00:34:51;3.40;;;2.17;;
69979;SDS011;57318;56.232;43.944;2023-08-24T00:37:17;2.80;;;1.80;;
69979;SDS011;57318;56.232;43.944;2023-08-24T00:39:42;2.17;;;1.60;;
69979;SDS011;57318;56.232;43.944;2023-08-24T00:42:08;2.27;;;2.00;;
69979;SDS011;57318;56.232;43.944;2023-08-24T00:44:38;4.88;;;2.10;;
69979;SDS011;57318;56.232;43.944;2023-08-24T00:47:04;2.43;;;2.10;;
69979;SDS011;57318;56.232;43.944;2023-08-24T00:49:30;4.10;;;2.20;;
69979;SDS011;57318;56.232;43.944;2023-08-24T00:51:56;2.33;;;2.00;;
69979;SDS011;57318;56.232;43.944;2023-08-24T00:54:21;3.83;;;1.90;;
69979;SDS011;57318;56.232;43.944;2023-08-24T00:56:48;2.75;;;1.70;;
69979;SDS011;57318;56.232;43.944;2023-08-24T00:59:13;2.27;;;1.90;;
69979;SDS011;57318;56.232;43.944;2023-08-24T01:01:39;2.93;;;1.73;;
69979;SDS011;57318;56.232;43.944;2023-08-24T01:04:08;2.15;;;1.67;;
69979;SDS011;57318;56.232;43.944;2023-08-24T01:06:36;2.60;;;2.08;;
69979;SDS011;57318;56.232;43.944;2023-08-24T01:09:02;2.20;;;1.42;;
69979;SDS011;57318;56.232;43.944;2023-08-24T01:11:32;1.77;;;1.50;;
69979;SDS011;57318;56.232;43.944;2023-08-24T01:14:23;2.20;;;1.80;;
69979;SDS011;57318;56.232;43.944;2023-08-24T01:17:09;3.58;;;1.77;;
69979;SDS011;57318;56.232;43.944;2023-08-24T01:19:40;2.70;;;1.90;;
69979;SDS011;57318;56.232;43.944;2023-08-24T01:22:08;2.10;;;1.90;;
69979;SDS011;57318;56.232;43.944;2023-08-24T01:27:36;3.13;;;1.98;;
69979;SDS011;57318;56.232;43.944;2023-08-24T01:30:06;4.50;;;2.10;;
69979;SDS011;57318;56.232;43.944;2023-08-24T01:32:33;2.85;;;2.15;;
69979;SDS011;57318;56.232;43.944;2023-08-24T01:35:04;3.72;;;2.15;;
69979;SDS011;57318;56.232;43.944;2023-08-24T01:37:34;3.13;;;2.33;;
69979;SDS011;57318;56.232;43.944;2023-08-24T01:45:08;4.35;;;2.60;;
69979;SDS011;57318;56.232;43.944;2023-08-24T01:47:36;5.03;;;2.25;;
69979;SDS011;57318;56.232;43.944;2023-08-24T01:50:05;3.63;;;2.30;;
69979;SDS011;57318;56.232;43.944;2023-08-24T01:52:31;3.90;;;2.13;;
69979;SDS011;57318;56.232;43.944;2023-08-24T01:54:58;2.95;;;2.40;;
69979;SDS011;57318;56.232;43.944;2023-08-24T01:57:23;5.20;;;2.20;;
69979;SDS011;57318;56.232;43.944;2023-08-24T01:59:51;4.00;;;2.00;;
69979;SDS011;57318;56.232;43.944;2023-08-24T02:02:17;2.72;;;2.00;;
69979;SDS011;57318;56.232;43.944;2023-08-24T02:04:42;4.43;;;2.20;;
69979;SDS011;57318;56.232;43.944;2023-08-24T02:07:08;3.40;;;2.40;;
69979;SDS011;57318;56.232;43.944;2023-08-24T02:09:34;3.53;;;2.60;;
69979;SDS011;57318;56.232;43.944;2023-08-24T02:12:00;3.43;;;2.70;;
69979;SDS011;57318;56.232;43.944;2023-08-24T02:14:25;3.73;;;2.57;;
69979;SDS011;57318;56.232;43.944;2023-08-24T02:17:11;4.43;;;2.80;;
69979;SDS011;57318;56.232;43.944;2023-08-24T02:19:36;3.17;;;2.47;;
69979;SDS011;57318;56.232;43.944;2023-08-24T02:22:02;3.47;;;2.40;;
69979;SDS011;57318;56.232;43.944;2023-08-24T02:24:28;4.80;;;2.20;;
69979;SDS011;57318;56.232;43.944;2023-08-24T02:26:53;4.70;;;2.17;;
69979;SDS011;57318;56.232;43.944;2023-08-24T02:29:19;3.60;;;2.60;;
69979;SDS011;57318;56.232;43.944;2023-08-24T02:31:45;6.37;;;2.60;;
69979;SDS011;57318;56.232;43.944;2023-08-24T02:34:10;3.10;;;2.13;;
69979;SDS011;57318;56.232;43.944;2023-08-24T02:36:36;3.87;;;2.50;;
69979;SDS011;57318;56.232;43.944;2023-08-24T02:39:02;3.80;;;2.17;;
69979;SDS011;57318;56.232;43.944;2023-08-24T02:41:28;4.07;;;2.40;;
69979;SDS011;57318;56.232;43.944;2023-08-24T02:43:54;3.25;;;2.50;;
69979;SDS011;57318;56.232;43.944;2023-08-24T02:46:20;4.77;;;2.23;;
69979;SDS011;57318;56.232;43.944;2023-08-24T02:48:46;5.93;;;2.88;;
69979;SDS011;57318;56.232;43.944;2023-08-24T02:51:13;5.23;;;2.40;;
69979;SDS011;57318;56.232;43.944;2023-08-24T02:53:38;3.53;;;2.40;;
69979;SDS011;57318;56.232;43.944;2023-08-24T02:56:04;2.53;;;2.00;;
69979;SDS011;57318;56.232;43.944;2023-08-24T02:58:30;2.80;;;2.23;;
69979;SDS011;57318;56.232;43.944;2023-08-24T03:00:56;2.92;;;2.17;;
69979;SDS011;57318;56.232;43.944;2023-08-24T03:03:25;4.18;;;2.35;;
69979;SDS011;57318;56.232;43.944;2023-08-24T03:08:24;2.13;;;1.92;;
69979;SDS011;57318;56.232;43.944;2023-08-24T03:10:50;2.42;;;2.05;;
69979;SDS011;57318;56.232;43.944;2023-08-24T03:13:16;3.22;;;2.10;;
69979;SDS011;57318;56.232;43.944;2023-08-24T03:15:42;3.30;;;2.25;;
69979;SDS011;57318;56.232;43.944;2023-08-24T03:18:11;5.25;;;2.22;;
69979;SDS011;57318;56.232;43.944;2023-08-24T03:20:38;2.80;;;1.98;;
69979;SDS011;57318;56.232;43.944;2023-08-24T03:23:05;3.67;;;2.35;;
69979;SDS011;57318;56.232;43.944;2023-08-24T03:25:34;3.63;;;1.90;;
69979;SDS011;57318;56.232;43.944;2023-08-24T03:28:02;3.17;;;2.05;;
69979;SDS011;57318;56.232;43.944;2023-08-24T03:30:28;3.42;;;2.08;;
69979;SDS011;57318;56.232;43.944;2023-08-24T03:32:54;3.20;;;2.30;;
69979;SDS011;57318;56.232;43.944;2023-08-24T03:35:20;2.87;;;2.07;;
69979;SDS011;57318;56.232;43.944;2023-08-24T03:37:45;3.67;;;2.43;;
69979;SDS011;57318;56.232;43.944;2023-08-24T03:40:11;2.90;;;2.27;;
69979;SDS011;57318;56.232;43.944;2023-08-24T03:45:05;3.90;;;2.35;;
69979;SDS011;57318;56.232;43.944;2023-08-24T03:47:31;3.70;;;2.55;;
69979;SDS011;57318;56.232;43.944;2023-08-24T03:49:57;2.50;;;1.97;;
69979;SDS011;57318;56.232;43.944;2023-08-24T03:52:22;3.43;;;1.90;;
69979;SDS011;57318;56.232;43.944;2023-08-24T03:54:48;4.73;;;2.07;;
69979;SDS011;57318;56.232;43.944;2023-08-24T03:57:14;2.60;;;2.00;;
69979;SDS011;57318;56.232;43.944;2023-08-24T03:59:41;2.72;;;2.25;;
69979;SDS011;57318;56.232;43.944;2023-08-24T04:02:07;2.45;;;1.85;;
69979;SDS011;57318;56.232;43.944;2023-08-24T04:04:32;3.37;;;1.90;;
69979;SDS011;57318;56.232;43.944;2023-08-24T04:06:58;3.75;;;2.13;;
69979;SDS011;57318;56.232;43.944;2023-08-24T04:09:25;2.58;;;1.80;;
69979;SDS011;57318;56.232;43.944;2023-08-24T04:11:51;3.22;;;1.80;;
69979;SDS011;57318;56.232;43.944;2023-08-24T04:14:17;5.07;;;3.73;;
69979;SDS011;57318;56.232;43.944;2023-08-24T04:16:42;2.00;;;1.50;;
69979;SDS011;57318;56.232;43.944;2023-08-24T04:19:08;2.77;;;1.97;;
69979;SDS011;57318;56.232;43.944;2023-08-24T04:21:34;2.53;;;1.97;;
69979;SDS011;57318;56.232;43.944;2023-08-24T04:24:00;4.97;;;2.00;;
69979;SDS011;57318;56.232;43.944;2023-08-24T04:26:26;3.57;;;2.07;;
69979;SDS011;57318;56.232;43.944;2023-08-24T04:28:51;5.00;;;2.00;;
69979;SDS011;57318;56.232;43.944;2023-08-24T04:31:17;4.50;;;2.33;;
69979;SDS011;57318;56.232;43.944;2023-08-24T04:33:43;2.50;;;1.90;;
69979;SDS011;57318;56.232;43.944;2023-08-24T04:36:08;5.03;;;2.03;;
69979;SDS011;57318;56.232;43.944;2023-08-24T04:38:34;2.63;;;1.70;;
69979;SDS011;57318;56.232;43.944;2023-08-24T04:41:00;3.10;;;1.60;;
69979;SDS011;57318;56.232;43.944;2023-08-24T04:43:26;2.25;;;1.80;;
69979;SDS011;57318;56.232;43.944;2023-08-24T04:45:52;1.75;;;1.60;;
69979;SDS011;57318;56.232;43.944;2023-08-24T04:48:20;2.03;;;1.58;;
69979;SDS011;57318;56.232;43.944;2023-08-24T04:53:13;2.63;;;1.85;;
69979;SDS011;57318;56.232;43.944;2023-08-24T04:55:41;3.95;;;1.65;;
69979;SDS011;57318;56.232;43.944;2023-08-24T04:58:07;3.25;;;2.22;;
69979;SDS011;57318;56.232;43.944;2023-08-24T05:00:34;2.35;;;1.50;;
69979;SDS011;57318;56.232;43.944;2023-08-24T05:05:26;1.50;;;1.40;;
69979;SDS011;57318;56.232;43.944;2023-08-24T05:07:55;4.28;;;1.55;;
69979;SDS011;57318;56.232;43.944;2023-08-24T05:10:21;1.95;;;1.65;;
69979;SDS011;57318;56.232;43.944;2023-08-24T05:12:46;3.27;;;1.60;;
69979;SDS011;57318;56.232;43.944;2023-08-24T05:15:12;1.63;;;1.33;;
69979;SDS011;57318;56.232;43.944;2023-08-24T05:17:39;2.22;;;1.35;;
69979;SDS011;57318;56.232;43.944;2023-08-24T05:20:06;3.63;;;1.70;;
69979;SDS011;57318;56.232;43.944;2023-08-24T05:22:39;3.85;;;2.20;;
69979;SDS011;57318;56.232;43.944;2023-08-24T05:25:05;2.55;;;1.48;;
69979;SDS011;57318;56.232;43.944;2023-08-24T05:27:31;2.95;;;1.38;;
69979;SDS011;57318;56.232;43.944;2023-08-24T05:29:57;1.50;;;1.40;;
69979;SDS011;57318;56.232;43.944;2023-08-24T05:32:23;4.30;;;1.73;;
69979;SDS011;57318;56.232;43.944;2023-08-24T05:34:49;2.40;;;1.40;;
69979;SDS011;57318;56.232;43.944;2023-08-24T05:37:15;1.55;;;1.45;;
69979;SDS011;57318;56.232;43.944;2023-08-24T05:39:41;1.37;;;1.20;;
69979;SDS011;57318;56.232;43.944;2023-08-24T05:42:07;2.30;;;1.40;;
69979;SDS011;57318;56.232;43.944;2023-08-24T05:44:35;3.92;;;1.88;;
69979;SDS011;57318;56.232;43.944;2023-08-24T05:47:01;1.30;;;1.20;;
69979;SDS011;57318;56.232;43.944;2023-08-24T05:49:27;2.90;;;1.60;;
69979;SDS011;57318;56.232;43.944;2023-08-24T05:51:53;3.65;;;1.52;;
69979;SDS011;57318;56.232;43.944;2023-08-24T05:54:19;3.23;;;1.50;;
69979;SDS011;57318;56.232;43.944;2023-08-24T05:56:45;6.00;;;2.17;;
69979;SDS011;57318;56.232;43.944;2023-08-24T05:59:12;6.97;;;1.50;;
69979;SDS011;57318;56.232;43.944;2023-08-24T06:01:38;2.33;;;1.63;;
69979;SDS011;57318;56.232;43.944;2023-08-24T06:04:05;2.70;;;1.60;;
69979;SDS011;57318;56.232;43.944;2023-08-24T06:06:31;1.80;;;1.58;;
69979;SDS011;57318;56.232;43.944;2023-08-24T06:08:58;2.97;;;1.90;;
69979;SDS011;57318;56.232;43.944;2023-08-24T06:11:23;1.97;;;1.67;;
69979;SDS011;57318;56.232;43.944;2023-08-24T06:13:52;1.65;;;1.42;;
69979;SDS011;57318;56.232;43.944;2023-08-24T06:16:19;3.40;;;1.75;;
69979;SDS011;57318;56.232;43.944;2023-08-24T06:18:45;4.93;;;1.55;;
69979;SDS011;57318;56.232;43.944;2023-08-24T06:21:11;3.83;;;1.67;;
69979;SDS011;57318;56.232;43.944;2023-08-24T06:23:38;1.67;;;1.42;;
69979;SDS011;57318;56.232;43.944;2023-08-24T06:26:04;1.60;;;1.50;;
69979;SDS011;57318;56.232;43.944;2023-08-24T06:28:30;2.42;;;1.50;;
69979;SDS011;57318;56.232;43.944;2023-08-24T06:30:56;4.72;;;1.77;;
69979;SDS011;57318;56.232;43.944;2023-08-24T06:33:28;2.30;;;1.50;;
69979;SDS011;57318;56.232;43.944;2023-08-24T06:35:56;2.15;;;1.90;;
69979;SDS011;57318;56.232;43.944;2023-08-24T06:38:22;5.32;;;1.98;;
69979;SDS011;57318;56.232;43.944;2023-08-24T06:40:48;2.20;;;1.83;;
69979;SDS011;57318;56.232;43.944;2023-08-24T06:43:14;6.22;;;2.00;;
69979;SDS011;57318;56.232;43.944;2023-08-24T06:45:40;2.78;;;1.52;;
69979;SDS011;57318;56.232;43.944;2023-08-24T06:48:08;4.55;;;1.80;;
69979;SDS011;57318;56.232;43.944;2023-08-24T06:50:34;4.20;;;1.70;;
69979;SDS011;57318;56.232;43.944;2023-08-24T06:53:02;2.25;;;1.63;;
69979;SDS011;57318;56.232;43.944;2023-08-24T06:55:28;4.10;;;1.67;;
69979;SDS011;57318;56.232;43.944;2023-08-24T06:57:54;3.80;;;1.92;;
69979;SDS011;57318;56.232;43.944;2023-08-24T07:00:20;2.00;;;1.80;;
69979;SDS011;57318;56.232;43.944;2023-08-24T07:02:46;3.00;;;2.00;;
69979;SDS011;57318;56.232;43.944;2023-08-24T07:05:13;2.60;;;2.05;;
69979;SDS011;57318;56.232;43.944;2023-08-24T07:07:43;2.58;;;2.10;;
69979;SDS011;57318;56.232;43.944;2023-08-24T07:10:09;2.65;;;2.00;;
69979;SDS011;57318;56.232;43.944;2023-08-24T07:15:00;6.30;;;2.10;;
69979;SDS011;57318;56.232;43.944;2023-08-24T07:17:29;2.22;;;2.03;;
69979;SDS011;57318;56.232;43.944;2023-08-24T07:19:55;3.17;;;1.80;;
69979;SDS011;57318;56.232;43.944;2023-08-24T07:22:21;2.90;;;1.77;;
69979;SDS011;57318;56.232;43.944;2023-08-24T07:24:47;2.53;;;1.63;;
69979;SDS011;57318;56.232;43.944;2023-08-24T07:27:17;4.75;;;2.00;;
69979;SDS011;57318;56.232;43.944;2023-08-24T07:29:43;1.85;;;1.63;;
69979;SDS011;57318;56.232;43.944;2023-08-24T07:32:09;4.35;;;2.00;;
69979;SDS011;57318;56.232;43.944;2023-08-24T07:34:35;4.68;;;1.80;;
69979;SDS011;57318;56.232;43.944;2023-08-24T07:39:26;4.90;;;2.55;;
69979;SDS011;57318;56.232;43.944;2023-08-24T07:44:18;4.32;;;1.65;;
69979;SDS011;57318;56.232;43.944;2023-08-24T07:49:09;1.65;;;1.55;;
69979;SDS011;57318;56.232;43.944;2023-08-24T07:51:35;3.47;;;1.60;;
69979;SDS011;57318;56.232;43.944;2023-08-24T07:54:01;2.83;;;1.67;;
69979;SDS011;57318;56.232;43.944;2023-08-24T07:56:29;2.22;;;1.70;;
69979;SDS011;57318;56.232;43.944;2023-08-24T07:58:55;4.88;;;1.80;;
69979;SDS011;57318;56.232;43.944;2023-08-24T08:01:21;3.80;;;1.67;;
69979;SDS011;57318;56.232;43.944;2023-08-24T08:03:47;2.13;;;1.70;;
69979;SDS011;57318;56.232;43.944;2023-08-24T08:06:12;4.05;;;1.60;;
69979;SDS011;57318;56.232;43.944;2023-08-24T08:08:39;6.72;;;1.90;;
69979;SDS011;57318;56.232;43.944;2023-08-24T08:11:04;3.33;;;1.52;;
69979;SDS011;57318;56.232;43.944;2023-08-24T08:13:30;8.60;;;1.80;;
69979;SDS011;57318;56.232;43.944;2023-08-24T08:16:03;4.63;;;2.50;;
69979;SDS011;57318;56.232;43.944;2023-08-24T08:18:31;1.95;;;1.30;;
69979;SDS011;57318;56.232;43.944;2023-08-24T08:20:57;4.53;;;1.55;;
69979;SDS011;57318;56.232;43.944;2023-08-24T08:23:23;2.97;;;1.30;;
69979;SDS011;57318;56.232;43.944;2023-08-24T08:25:49;1.33;;;1.23;;
69979;SDS011;57318;56.232;43.944;2023-08-24T08:28:16;6.10;;;1.10;;
69979;SDS011;57318;56.232;43.944;2023-08-24T08:30:46;5.45;;;1.35;;
69979;SDS011;57318;56.232;43.944;2023-08-24T08:33:14;1.73;;;1.20;;
69979;SDS011;57318;56.232;43.944;2023-08-24T08:35:40;4.43;;;1.30;;
69979;SDS011;57318;56.232;43.944;2023-08-24T08:38:06;4.65;;;1.30;;
69979;SDS011;57318;56.232;43.944;2023-08-24T08:40:36;1.92;;;1.10;;
69979;SDS011;57318;56.232;43.944;2023-08-24T08:43:02;2.05;;;1.40;;
69979;SDS011;57318;56.232;43.944;2023-08-24T08:45:29;1.92;;;0.98;;
69979;SDS011;57318;56.232;43.944;2023-08-24T08:47:58;2.63;;;0.88;;
69979;SDS011;57318;56.232;43.944;2023-08-24T08:50:26;5.25;;;1.17;;
69979;SDS011;57318;56.232;43.944;2023-08-24T08:52:52;2.33;;;1.00;;
69979;SDS011;57318;56.232;43.944;2023-08-24T08:57:47;2.40;;;1.10;;
69979;SDS011;57318;56.232;43.944;2023-08-24T09:00:17;2.28;;;1.05;;
69979;SDS011;57318;56.232;43.944;2023-08-24T09:02:44;2.42;;;1.10;;
69979;SDS011;57318;56.232;43.944;2023-08-24T09:05:13;1.10;;;1.00;;
69979;SDS011;57318;56.232;43.944;2023-08-24T09:07:40;2.17;;;1.08;;
69979;SDS011;57318;56.232;43.944;2023-08-24T09:12:33;3.53;;;1.10;;
69979;SDS011;57318;56.232;43.944;2023-08-24T09:14:59;11.32;;;1.83;;
69979;SDS011;57318;56.232;43.944;2023-08-24T09:17:25;1.20;;;0.80;;
69979;SDS011;57318;56.232;43.944;2023-08-24T09:19:52;2.97;;;1.05;;
69979;SDS011;57318;56.232;43.944;2023-08-24T09:22:22;7.32;;;1.30;;
69979;SDS011;57318;56.232;43.944;2023-08-24T09:24:48;1.77;;;1.08;;
69979;SDS011;57318;56.232;43.944;2023-08-24T09:27:20;4.25;;;1.58;;
69979;SDS011;57318;56.232;43.944;2023-08-24T09:29:47;6.00;;;1.38;;
69979;SDS011;57318;56.232;43.944;2023-08-24T09:32:30;4.80;;;1.38;;
69979;SDS011;57318;56.232;43.944;2023-08-24T09:35:09;1.67;;;1.40;;
69979;SDS011;57318;56.232;43.944;2023-08-24T09:37:36;7.40;;;1.50;;
69979;SDS011;57318;56.232;43.944;2023-08-24T09:40:03;4.43;;;1.45;;
69979;SDS011;57318;56.232;43.944;2023-08-24T09:42:42;3.40;;;1.20;;
69979;SDS011;57318;56.232;43.944;2023-08-24T09:45:12;4.03;;;1.30;;
69979;SDS011;57318;56.232;43.944;2023-08-24T09:47:39;3.95;;;1.20;;
69979;SDS011;57318;56.232;43.944;2023-08-24T09:50:09;1.95;;;1.15;;
69979;SDS011;57318;56.232;43.944;2023-08-24T09:52:35;2.25;;;1.10;;
69979;SDS011;57318;56.232;43.944;2023-08-24T09:55:06;2.70;;;1.20;;
69979;SDS011;57318;56.232;43.944;2023-08-24T09:57:38;2.22;;;1.13;;
69979;SDS011;57318;56.232;43.944;2023-08-24T10:00:08;6.95;;;1.90;;
69979;SDS011;57318;56.232;43.944;2023-08-24T10:05:25;1.47;;;1.20;;
69979;SDS011;57318;56.232;43.944;2023-08-24T10:07:53;1.45;;;1.10;;
69979;SDS011;57318;56.232;43.944;2023-08-24T10:10:20;2.38;;;1.13;;
69979;SDS011;57318;56.232;43.944;2023-08-24T10:12:49;4.88;;;1.40;;
69979;SDS011;57318;56.232;43.944;2023-08-24T10:15:17;1.90;;;1.30;;
69979;SDS011;57318;56.232;43.944;2023-08-24T10:17:44;1.20;;;1.10;;
69979;SDS011;57318;56.232;43.944;2023-08-24T10:20:10;1.55;;;1.20;;
69979;SDS011;57318;56.232;43.944;2023-08-24T10:22:37;3.95;;;1.20;;
69979;SDS011;57318;56.232;43.944;2023-08-24T10:25:06;3.35;;;1.10;;
69979;SDS011;57318;56.232;43.944;2023-08-24T10:27:33;1.80;;;1.15;;
69979;SDS011;57318;56.232;43.944;2023-08-24T10:30:00;2.80;;;1.20;;
69979;SDS011;57318;56.232;43.944;2023-08-24T10:32:26;3.63;;;1.42;;
69979;SDS011;57318;56.232;43.944;2023-08-24T10:34:52;1.92;;;1.30;;
69979;SDS011;57318;56.232;43.944;2023-08-24T10:37:24;3.03;;;1.13;;
69979;SDS011;57318;56.232;43.944;2023-08-24T10:39:52;1.92;;;1.10;;
69979;SDS011;57318;56.232;43.944;2023-08-24T10:42:18;3.92;;;1.10;;
69979;SDS011;57318;56.232;43.944;2023-08-24T10:44:44;2.80;;;1.45;;
69979;SDS011;57318;56.232;43.944;2023-08-24T10:52:30;3.88;;;1.90;;
69979;SDS011;57318;56.232;43.944;2023-08-24T10:55:02;3.80;;;2.40;;
69979;SDS011;57318;56.232;43.944;2023-08-24T11:00:04;4.28;;;1.63;;
69979;SDS011;57318;56.232;43.944;2023-08-24T11:05:17;2.45;;;1.40;;
69979;SDS011;57318;56.232;43.944;2023-08-24T11:08:01;3.13;;;1.35;;
69979;SDS011;57318;56.232;43.944;2023-08-24T11:18:27;4.90;;;1.40;;
69979;SDS011;57318;56.232;43.944;2023-08-24T11:21:05;4.95;;;1.30;;
69979;SDS011;57318;56.232;43.944;2023-08-24T11:23:32;1.40;;;1.17;;
69979;SDS011;57318;56.232;43.944;2023-08-24T11:25:59;2.25;;;1.00;;
69979;SDS011;57318;56.232;43.944;2023-08-24T11:28:26;5.45;;;1.10;;
69979;SDS011;57318;56.232;43.944;2023-08-24T11:30:53;1.33;;;0.93;;
69979;SDS011;57318;56.232;43.944;2023-08-24T11:33:30;1.02;;;1.00;;
69979;SDS011;57318;56.232;43.944;2023-08-24T11:38:23;1.88;;;1.20;;
69979;SDS011;57318;56.232;43.944;2023-08-24T11:40:48;3.00;;;1.15;;
69979;SDS011;57318;56.232;43.944;2023-08-24T11:43:23;5.43;;;1.10;;
69979;SDS011;57318;56.232;43.944;2023-08-24T11:45:53;1.95;;;0.93;;
69979;SDS011;57318;56.232;43.944;2023-08-24T11:48:23;2.13;;;1.05;;
69979;SDS011;57318;56.232;43.944;2023-08-24T11:50:51;2.83;;;1.15;;
69979;SDS011;57318;56.232;43.944;2023-08-24T11:53:19;2.20;;;1.20;;
69979;SDS011;57318;56.232;43.944;2023-08-24T11:55:44;3.45;;;1.40;;
69979;SDS011;57318;56.232;43.944;2023-08-24T11:58:16;2.20;;;1.20;;
69979;SDS011;57318;56.232;43.944;2023-08-24T12:00:42;3.88;;;1.40;;
69979;SDS011;57318;56.232;43.944;2023-08-24T12:03:10;3.00;;;1.15;;
69979;SDS011;57318;56.232;43.944;2023-08-24T12:08:01;3.72;;;1.33;;
69979;SDS011;57318;56.232;43.944;2023-08-24T12:10:27;3.42;;;1.30;;
69979;SDS011;57318;56.232;43.944;2023-08-24T12:13:06;5.63;;;1.35;;
69979;SDS011;57318;56.232;43.944;2023-08-24T12:15:35;6.32;;;1.30;;
69979;SDS011;57318;56.232;43.944;2023-08-24T12:18:09;3.50;;;1.30;;
69979;SDS011;57318;56.232;43.944;2023-08-24T12:20:36;3.47;;;1.20;;
69979;SDS011;57318;56.232;43.944;2023-08-24T12:23:02;2.88;;;1.20;;
69979;SDS011;57318;56.232;43.944;2023-08-24T12:25:28;1.40;;;1.00;;
69979;SDS011;57318;56.232;43.944;2023-08-24T12:28:13;4.03;;;1.50;;
69979;SDS011;57318;56.232;43.944;2023-08-24T12:30:52;2.72;;;1.20;;
69979;SDS011;57318;56.232;43.944;2023-08-24T12:33:25;4.70;;;1.33;;
69979;SDS011;57318;56.232;43.944;2023-08-24T12:35:52;3.22;;;1.20;;
69979;SDS011;57318;56.232;43.944;2023-08-24T12:38:19;12.38;;;1.40;;
69979;SDS011;57318;56.232;43.944;2023-08-24T12:40:45;5.65;;;1.00;;
69979;SDS011;57318;56.232;43.944;2023-08-24T12:43:11;2.70;;;1.20;;
69979;SDS011;57318;56.232;43.944;2023-08-24T12:45:38;4.57;;;1.40;;
69979;SDS011;57318;56.232;43.944;2023-08-24T12:48:06;4.03;;;1.40;;
69979;SDS011;57318;56.232;43.944;2023-08-24T12:50:35;2.33;;;1.20;;
69979;SDS011;57318;56.232;43.944;2023-08-24T12:53:01;7.72;;;1.35;;
69979;SDS011;57318;56.232;43.944;2023-08-24T12:55:28;1.95;;;1.20;;
69979;SDS011;57318;56.232;43.944;2023-08-24T12:57:54;8.35;;;1.60;;
69979;SDS011;57318;56.232;43.944;2023-08-24T13:00:20;4.32;;;1.20;;
69979;SDS011;57318;56.232;43.944;2023-08-24T13:02:50;2.55;;;1.10;;
69979;SDS011;57318;56.232;43.944;2023-08-24T13:05:16;3.10;;;1.00;;
69979;SDS011;57318;56.232;43.944;2023-08-24T13:07:42;4.07;;;1.27;;
69979;SDS011;57318;56.232;43.944;2023-08-24T13:10:08;7.00;;;1.80;;
69979;SDS011;57318;56.232;43.944;2023-08-24T13:12:34;7.80;;;1.30;;
69979;SDS011;57318;56.232;43.944;2023-08-24T13:17:29;4.70;;;1.38;;
69979;SDS011;57318;56.232;43.944;2023-08-24T13:19:56;6.30;;;1.52;;
69979;SDS011;57318;56.232;43.944;2023-08-24T13:22:22;4.30;;;1.30;;
69979;SDS011;57318;56.232;43.944;2023-08-24T13:24:48;6.63;;;3.83;;
69979;SDS011;57318;56.232;43.944;2023-08-24T13:27:14;2.70;;;1.45;;
69979;SDS011;57318;56.232;43.944;2023-08-24T13:29:40;3.55;;;1.33;;
69979;SDS011;57318;56.232;43.944;2023-08-24T13:32:07;6.75;;;1.42;;
69979;SDS011;57318;56.232;43.944;2023-08-24T13:34:33;3.30;;;1.33;;
69979;SDS011;57318;56.232;43.944;2023-08-24T13:36:59;6.45;;;1.90;;
69979;SDS011;57318;56.232;43.944;2023-08-24T13:41:53;4.50;;;1.48;;
69979;SDS011;57318;56.232;43.944;2023-08-24T13:44:20;2.95;;;1.30;;
69979;SDS011;57318;56.232;43.944;2023-08-24T13:46:46;5.15;;;1.40;;
69979;SDS011;57318;56.232;43.944;2023-08-24T13:49:14;4.93;;;1.60;;
69979;SDS011;57318;56.232;43.944;2023-08-24T13:51:40;8.47;;;2.10;;
69979;SDS011;57318;56.232;43.944;2023-08-24T13:54:15;8.00;;;2.10;;
69979;SDS011;57318;56.232;43.944;2023-08-24T13:56:43;3.17;;;1.73;;
69979;SDS011;57318;56.232;43.944;2023-08-24T13:59:11;4.40;;;1.63;;
69979;SDS011;57318;56.232;43.944;2023-08-24T14:01:37;6.82;;;1.80;;
69979;SDS011;57318;56.232;43.944;2023-08-24T14:04:03;3.25;;;1.50;;
69979;SDS011;57318;56.232;43.944;2023-08-24T14:06:30;4.57;;;1.42;;
69979;SDS011;57318;56.232;43.944;2023-08-24T14:08:57;2.45;;;1.30;;
69979;SDS011;57318;56.232;43.944;2023-08-24T14:11:23;3.50;;;1.30;;
69979;SDS011;57318;56.232;43.944;2023-08-24T14:13:49;7.13;;;2.25;;
69979;SDS011;57318;56.232;43.944;2023-08-24T14:16:15;13.85;;;2.53;;
69979;SDS011;57318;56.232;43.944;2023-08-24T14:18:40;4.20;;;1.90;;
69979;SDS011;57318;56.232;43.944;2023-08-24T14:21:06;9.10;;;3.10;;
69979;SDS011;57318;56.232;43.944;2023-08-24T14:23:32;5.70;;;2.43;;
69979;SDS011;57318;56.232;43.944;2023-08-24T14:25:58;6.40;;;2.88;;
69979;SDS011;57318;56.232;43.944;2023-08-24T14:28:24;5.53;;;2.30;;
69979;SDS011;57318;56.232;43.944;2023-08-24T14:30:50;4.63;;;1.60;;
69979;SDS011;57318;56.232;43.944;2023-08-24T14:33:16;5.57;;;1.60;;
69979;SDS011;57318;56.232;43.944;2023-08-24T14:35:52;3.70;;;1.38;;
69979;SDS011;57318;56.232;43.944;2023-08-24T14:38:18;3.63;;;1.13;;
69979;SDS011;57318;56.232;43.944;2023-08-24T14:40:44;3.67;;;1.35;;
69979;SDS011;57318;56.232;43.944;2023-08-24T14:43:10;4.53;;;1.23;;
69979;SDS011;57318;56.232;43.944;2023-08-24T14:45:36;2.30;;;0.90;;
69979;SDS011;57318;56.232;43.944;2023-08-24T14:48:02;3.67;;;2.50;;
69979;SDS011;57318;56.232;43.944;2023-08-24T14:50:28;3.30;;;1.25;;
69979;SDS011;57318;56.232;43.944;2023-08-24T14:52:54;1.73;;;1.03;;
69979;SDS011;57318;56.232;43.944;2023-08-24T14:55:20;7.07;;;1.10;;
69979;SDS011;57318;56.232;43.944;2023-08-24T14:57:45;1.53;;;1.00;;
69979;SDS011;57318;56.232;43.944;2023-08-24T15:00:11;3.97;;;1.20;;
69979;SDS011;57318;56.232;43.944;2023-08-24T15:02:37;6.30;;;1.20;;
69979;SDS011;57318;56.232;43.944;2023-08-24T15:05:05;3.00;;;1.10;;
69979;SDS011;57318;56.232;43.944;2023-08-24T15:07:30;1.15;;;0.80;;
69979;SDS011;57318;56.232;43.944;2023-08-24T15:09:57;3.63;;;1.30;;
69979;SDS011;57318;56.232;43.944;2023-08-24T15:12:23;2.77;;;1.20;;
69979;SDS011;57318;56.232;43.944;2023-08-24T15:14:59;2.27;;;1.20;;
69979;SDS011;57318;56.232;43.944;2023-08-24T15:17:32;2.03;;;1.10;;
69979;SDS011;57318;56.232;43.944;2023-08-24T15:19:58;14.00;;;2.63;;
69979;SDS011;57318;56.232;43.944;2023-08-24T15:22:24;2.63;;;1.17;;
69979;SDS011;57318;56.232;43.944;2023-08-24T15:24:54;1.70;;;1.50;;
69979;SDS011;57318;56.232;43.944;2023-08-24T15:27:21;3.30;;;1.70;;
69979;SDS011;57318;56.232;43.944;2023-08-24T15:29:47;3.83;;;2.00;;
69979;SDS011;57318;56.232;43.944;2023-08-24T15:32:13;2.93;;;1.70;;
69979;SDS011;57318;56.232;43.944;2023-08-24T15:34:41;7.20;;;2.30;;
69979;SDS011;57318;56.232;43.944;2023-08-24T15:37:08;5.38;;;2.30;;